Terminal Aerodrome Forecast
Issued by NWS Central Illinois

Home | Current Version | Previous Version | Text Only | Print | Product List | Glossary On
Versions: 1 2 3 4 5 6 7 8 9 10 11 12 13 14 15
000
FTUS43 KILX 040520
TAFPIA
TAF
KPIA 040520Z 0406/0506 VRB03KT 5SM HZ SKC
     FM040900 00000KT 3SM BR SKC
     FM041400 VRB03KT P6SM SCT035
     FM050100 00000KT P6SM SKC=

USA.gov is the U.S. government's official web portal to all federal, state and local government web resources and services.